PWSweather.com
Personal Weather Stations
Station Observations
KGAMARIE64
Piedmont Bend, Marietta, GA 30062

Piedmont BendMarietta, GA 30062

Lat: 33.995327, Lon: -84.491958

Elevation: 1125

Station Type: Davis Vantage Pro2 (Cabled)

http://www.ericboettner.com/weather

Latest ConditionsUpdated 6:30:00 PM EDT Saturday, Jul 21, 2018
Currently Today's Max Today's Min Today's Average
Temperature 84.9°F29.4°C 89.0°F31.7°C 69.4°F20.8°C 77.2°F25.1°C
Dew Point 74.8°F23.8°C 75.7°F24.3°C 67.6°F19.8°C 70.5°F21.4°C
Winds Calm Calm 1.2 mph -1.9 kmh - - 0.0 mph 0.0 kmh
Wind Gusts -- 1.2 mph1.9 kmh - -
Humidity 72% 94% 63% 81%
Pressure 30.93 in1047.4 mb 31.13 in1054.2 mb 30.93 in1047.4 mb -
Precipitation - 0.01 in0.3 mm - -
Hour Temp Dew Point Humidity Winds Wind Gusts Pressure Precip Precip Rate Daily Precip Total
06:30 PM 84.9°F29.4°C 74.8°F23.8°C 72% Calm Calm -- 30.93 in1047.4 mb - 0.00 in0.0 mm 0.01 in0.3 mm
06:00 PM 85.9°F29.9°C 74.1°F23.4°C 68% Calm Calm -- 30.95 in1048.1 mb - 0.00 in0.0 mm 0.01 in0.3 mm
05:30 PM 89.0°F31.7°C 75.7°F24.3°C 65% Calm Calm 1.2 mph1.9 kmh 30.95 in1048.1 mb - 0.00 in0.0 mm 0.01 in0.3 mm
05:00 PM 87.3°F30.7°C 75.0°F23.9°C 67% Calm Calm -- 30.98 in1049.1 mb - 0.00 in0.0 mm 0.01 in0.3 mm
04:30 PM 86.2°F30.1°C 73.5°F23.1°C 66% Calm Calm -- 30.98 in1049.1 mb - 0.00 in0.0 mm 0.01 in0.3 mm
04:00 PM 86.3°F30.2°C 72.3°F22.4°C 63% Calm Calm -- 30.98 in1049.1 mb - 0.00 in0.0 mm 0.01 in0.3 mm
03:30 PM 85.6°F29.8°C 72.5°F22.5°C 65% Calm Calm 1.2 mph1.9 kmh 30.99 in1049.4 mb - 0.00 in0.0 mm 0.01 in0.3 mm
03:00 PM 85.6°F29.8°C 74.3°F23.5°C 69% Calm Calm -- 31.00 in1049.8 mb - 0.00 in0.0 mm 0.01 in0.3 mm
02:30 PM 86.3°F30.2°C 72.7°F22.6°C 64% Calm Calm -- 31.00 in1049.8 mb - 0.00 in0.0 mm 0.01 in0.3 mm
02:00 PM 86.5°F30.3°C 72.8°F22.7°C 64% Calm Calm 1.2 mph1.9 kmh 31.01 in1050.1 mb - 0.00 in0.0 mm 0.01 in0.3 mm
01:30 PM 83.6°F28.7°C 73.2°F22.9°C 71% Calm Calm -- 31.03 in1050.8 mb - 0.00 in0.0 mm 0.01 in0.3 mm
01:00 PM 82.0°F27.8°C 72.9°F22.7°C 74% Calm Calm -- 31.05 in1051.5 mb - 0.00 in0.0 mm 0.01 in0.3 mm
12:30 PM 79.8°F26.6°C 71.6°F22.0°C 76% Calm Calm -- 31.06 in1051.8 mb - 0.00 in0.0 mm 0.01 in0.3 mm
12:00 PM 78.7°F25.9°C 70.9°F21.6°C 77% Calm Calm -- 31.08 in1052.5 mb - 0.00 in0.0 mm 0.01 in0.3 mm
11:30 AM 77.9°F25.5°C 71.2°F21.8°C 80% Calm Calm 1.2 mph1.9 kmh 31.09 in1052.8 mb - 0.00 in0.0 mm 0.01 in0.3 mm
11:00 AM 76.8°F24.9°C 70.9°F21.6°C 82% 1.2 mph WNW1.9 kmh WNW 1.2 mph1.9 kmh 31.08 in1052.5 mb - 0.00 in0.0 mm 0.01 in0.3 mm
10:30 AM 74.7°F23.7°C 70.2°F21.2°C 86% Calm Calm -- 31.08 in1052.5 mb - 0.00 in0.0 mm 0.01 in0.3 mm
10:00 AM 72.0°F22.2°C 69.2°F20.7°C 91% Calm Calm -- 31.08 in1052.5 mb - 0.00 in0.0 mm 0.01 in0.3 mm
09:30 AM 70.5°F21.4°C 68.4°F20.2°C 93% Calm Calm 1.2 mph1.9 kmh 31.08 in1052.5 mb - 0.01 in0.3 mm 0.01 in0.3 mm
09:00 AM 69.4°F20.8°C 67.6°F19.8°C 94% Calm Calm -- 31.10 in1053.2 mb - 0.01 in0.3 mm 0.01 in0.3 mm
08:30 AM 71.9°F22.2°C 68.2°F20.1°C 88% Calm Calm -- 31.11 in1053.5 mb - 0.00 in0.0 mm 0.00 in0.0 mm
08:00 AM 71.9°F22.2°C 68.2°F20.1°C 88% Calm Calm -- 31.12 in1053.8 mb - 0.00 in0.0 mm 0.00 in0.0 mm
07:30 AM 71.9°F22.2°C 68.2°F20.1°C 88% Calm Calm -- 31.10 in1053.2 mb - 0.00 in0.0 mm 0.00 in0.0 mm
07:00 AM 71.9°F22.2°C 68.2°F20.1°C 88% Calm Calm -- 31.09 in1052.8 mb - 0.00 in0.0 mm 0.00 in0.0 mm
06:30 AM 71.9°F22.2°C 68.2°F20.1°C 88% Calm Calm -- 31.10 in1053.2 mb - 0.00 in0.0 mm 0.00 in0.0 mm
06:00 AM 71.9°F22.2°C 68.2°F20.1°C 88% Calm Calm -- 31.01 in1050.1 mb - 0.00 in0.0 mm 0.00 in0.0 mm
05:30 AM 71.9°F22.2°C 68.2°F20.1°C 88% Calm Calm -- 31.03 in1050.8 mb - 0.00 in0.0 mm 0.00 in0.0 mm
05:00 AM 71.9°F22.2°C 68.2°F20.1°C 88% Calm Calm -- 31.03 in1050.8 mb - 0.00 in0.0 mm 0.00 in0.0 mm
04:30 AM 71.9°F22.2°C 68.2°F20.1°C 88% Calm Calm -- 31.06 in1051.8 mb - 0.00 in0.0 mm 0.00 in0.0 mm
04:00 AM 71.9°F22.2°C 68.2°F20.1°C 88% Calm Calm -- 31.06 in1051.8 mb - 0.00 in0.0 mm 0.00 in0.0 mm
03:30 AM 71.9°F22.2°C 68.2°F20.1°C 88% Calm Calm -- 31.07 in1052.2 mb - 0.00 in0.0 mm 0.00 in0.0 mm
03:00 AM 73.2°F22.9°C 69.4°F20.8°C 88% Calm Calm -- 31.08 in1052.5 mb - 0.00 in0.0 mm 0.00 in0.0 mm
02:30 AM 73.4°F23.0°C 69.6°F20.9°C 88% Calm Calm -- 31.09 in1052.8 mb - 0.00 in0.0 mm 0.00 in0.0 mm
02:00 AM 73.0°F22.8°C 69.6°F20.9°C 89% Calm Calm -- 31.12 in1053.8 mb - 0.00 in0.0 mm 0.00 in0.0 mm
01:30 AM 73.0°F22.8°C 69.6°F20.9°C 89% Calm Calm -- 31.11 in1053.5 mb - 0.00 in0.0 mm 0.00 in0.0 mm
01:00 AM 73.1°F22.8°C 69.3°F20.7°C 88% Calm Calm -- 31.11 in1053.5 mb - 0.00 in0.0 mm 0.00 in0.0 mm
12:30 AM 73.1°F22.8°C 69.0°F20.6°C 87% Calm Calm -- 31.13 in1054.2 mb - 0.00 in0.0 mm 0.00 in0.0 mm
12:00 AM 73.4°F23.0°C 69.0°F20.6°C 86% Calm Calm -- 31.13 in1054.2 mb - 0.00 in0.0 mm 0.00 in0.0 mm